createdAt,value
2018-09-20T00:00:58.890Z,18.55
2018-09-20T00:01:58.919Z,18.58
2018-09-20T00:02:58.954Z,18.53
2018-09-20T00:03:58.981Z,18.50
2018-09-20T00:04:59.012Z,18.53
2018-09-20T00:05:59.042Z,18.53
2018-09-20T00:06:59.070Z,18.46
2018-09-20T00:07:59.108Z,18.44
2018-09-20T00:08:59.138Z,18.43
2018-09-20T00:09:59.172Z,18.43
2018-09-20T00:10:59.197Z,18.46
2018-09-20T00:11:59.231Z,18.43
2018-09-20T00:12:59.261Z,18.41
2018-09-20T00:13:59.293Z,18.46
2018-09-20T00:14:59.318Z,18.40
2018-09-20T00:15:59.357Z,18.40
2018-09-20T00:16:59.381Z,18.43
2018-09-20T00:17:59.410Z,18.31
2018-09-20T00:18:59.442Z,18.34
2018-09-20T00:19:59.468Z,18.35
2018-09-20T00:20:59.506Z,18.34
2018-09-20T00:21:59.544Z,18.34
2018-09-20T00:22:59.568Z,18.38
2018-09-20T00:23:59.635Z,18.43
2018-09-20T00:24:59.628Z,18.44
2018-09-20T00:25:59.657Z,18.43
2018-09-20T00:26:59.689Z,18.50
2018-09-20T00:27:59.721Z,18.52
2018-09-20T00:28:59.756Z,18.55
2018-09-20T00:29:59.783Z,18.60
2018-09-20T00:30:59.810Z,18.66
2018-09-20T00:31:59.845Z,18.59
2018-09-20T00:32:59.872Z,18.70
2018-09-20T00:33:59.904Z,18.60
2018-09-20T00:34:59.936Z,18.73
2018-09-20T00:35:59.963Z,18.71
2018-09-20T00:36:59.999Z,18.71
2018-09-20T00:38:00.030Z,18.74
2018-09-20T00:39:00.057Z,18.78
2018-09-20T00:40:00.084Z,18.71
2018-09-20T00:41:00.129Z,18.70
2018-09-20T00:42:00.145Z,18.74
2018-09-20T00:43:00.177Z,18.71
2018-09-20T00:44:00.207Z,18.67
2018-09-20T00:45:00.233Z,18.70
2018-09-20T00:46:00.270Z,18.62
2018-09-20T00:47:00.300Z,18.60
2018-09-20T00:48:00.328Z,18.58
2018-09-20T00:49:00.363Z,18.67
2018-09-20T00:50:00.393Z,18.68
2018-09-20T00:51:00.418Z,18.66
2018-09-20T00:52:00.450Z,18.59
2018-09-20T00:53:00.485Z,18.56
2018-09-20T00:54:00.512Z,18.63
2018-09-20T00:55:00.559Z,18.53
2018-09-20T00:56:00.569Z,18.60
2018-09-20T00:57:00.607Z,18.52
2018-09-20T00:58:00.633Z,18.50
2018-09-20T00:59:00.662Z,18.56
2018-09-20T01:00:00.697Z,18.48
2018-09-20T01:01:00.726Z,18.49
2018-09-20T01:02:00.758Z,18.49
2018-09-20T01:03:00.784Z,18.44
2018-09-20T01:04:00.810Z,18.46
2018-09-20T01:05:00.848Z,18.41
2018-09-20T01:06:00.877Z,18.43
2018-09-20T01:07:00.910Z,18.44
2018-09-20T01:08:00.944Z,18.46
2018-09-20T01:09:00.967Z,18.40
2018-09-20T01:10:01.004Z,18.37
2018-09-20T01:11:01.028Z,18.41
2018-09-20T01:12:01.063Z,18.44
2018-09-20T01:13:01.083Z,18.50
2018-09-20T01:14:01.124Z,18.62
2018-09-20T01:15:01.158Z,18.67
2018-09-20T01:16:01.184Z,18.67
2018-09-20T01:17:01.209Z,18.73
2018-09-20T01:18:01.245Z,18.80
2018-09-20T01:19:01.274Z,18.78
2018-09-20T01:20:01.306Z,18.85
2018-09-20T01:21:01.339Z,18.75
2018-09-20T01:22:01.367Z,18.89
2018-09-20T01:23:01.403Z,18.95
2018-09-20T01:24:01.429Z,18.98
2018-09-20T01:25:01.458Z,18.93
2018-09-20T01:26:01.490Z,18.95
2018-09-20T01:27:01.518Z,18.88
2018-09-20T01:28:01.547Z,18.92
2018-09-20T01:29:01.584Z,18.92
2018-09-20T01:30:01.610Z,18.86
2018-09-20T01:31:01.642Z,18.78
2018-09-20T01:32:01.674Z,18.78
2018-09-20T01:33:01.703Z,18.75
2018-09-20T01:34:05.511Z,18.78
2018-09-20T01:35:01.781Z,18.74
2018-09-20T01:36:01.801Z,18.67
2018-09-20T01:37:01.830Z,18.63
2018-09-20T01:38:01.855Z,18.68
2018-09-20T01:39:01.888Z,18.68
2018-09-20T01:40:01.919Z,18.73
2018-09-20T01:41:01.944Z,18.63
2018-09-20T01:42:01.980Z,18.62
2018-09-20T01:43:02.009Z,18.63
2018-09-20T01:44:02.047Z,18.63
2018-09-20T01:45:02.069Z,18.58
2018-09-20T01:46:02.101Z,18.66
2018-09-20T01:47:02.133Z,18.62
2018-09-20T01:48:02.165Z,18.58
2018-09-20T01:49:02.191Z,18.60
2018-09-20T01:50:02.226Z,18.59
2018-09-20T01:51:02.255Z,18.62
2018-09-20T01:52:02.285Z,18.55
2018-09-20T01:53:02.314Z,18.49
2018-09-20T01:54:02.344Z,18.53
2018-09-20T01:55:02.421Z,18.48
2018-09-20T01:56:02.408Z,18.43
2018-09-20T01:57:02.433Z,18.53
2018-09-20T01:58:02.469Z,18.49
2018-09-20T01:59:02.497Z,18.58
2018-09-20T02:00:02.531Z,18.58
2018-09-20T02:01:02.558Z,18.56
2018-09-20T02:02:02.585Z,18.56
2018-09-20T02:03:02.621Z,18.49
2018-09-20T02:04:02.649Z,18.46
2018-09-20T02:05:02.681Z,18.48
2018-09-20T02:06:02.710Z,18.46
2018-09-20T02:07:02.742Z,18.46
2018-09-20T02:08:02.773Z,18.48
2018-09-20T02:09:02.803Z,18.38
2018-09-20T02:10:02.832Z,18.43
2018-09-20T02:11:02.863Z,18.40
2018-09-20T02:12:02.896Z,18.41
2018-09-20T02:13:02.931Z,18.46
2018-09-20T02:14:02.953Z,18.37
2018-09-20T02:15:02.989Z,18.38
2018-09-20T02:16:03.015Z,18.46
2018-09-20T02:17:03.043Z,18.43
2018-09-20T02:18:03.065Z,18.40
2018-09-20T02:19:03.107Z,18.31
2018-09-20T02:20:03.143Z,18.35
2018-09-20T02:21:03.178Z,18.31
2018-09-20T02:22:03.194Z,18.40
2018-09-20T02:23:03.223Z,18.38
2018-09-20T02:24:03.258Z,18.33
2018-09-20T02:25:03.288Z,18.38
2018-09-20T02:26:03.319Z,18.40
2018-09-20T02:27:03.351Z,18.31
2018-09-20T02:28:03.397Z,18.28
2018-09-20T02:29:03.410Z,18.19
2018-09-20T02:30:03.439Z,18.19
2018-09-20T02:31:03.470Z,18.16
2018-09-20T02:32:03.503Z,18.19
2018-09-20T02:33:03.532Z,18.10
2018-09-20T02:34:03.564Z,18.03
2018-09-20T02:35:03.601Z,18.09
2018-09-20T02:36:03.623Z,17.95
2018-09-20T02:37:03.655Z,18.03
2018-09-20T02:38:03.687Z,17.94
2018-09-20T02:39:03.718Z,17.97
2018-09-20T02:40:03.745Z,17.95
2018-09-20T02:41:03.774Z,17.83
2018-09-20T02:42:03.807Z,17.86
2018-09-20T02:43:03.838Z,17.83
2018-09-20T02:44:03.869Z,17.71
2018-09-20T02:45:03.896Z,17.79
2018-09-20T02:46:03.925Z,17.76
2018-09-20T02:47:03.957Z,17.73
2018-09-20T02:48:03.988Z,17.67
2018-09-20T02:49:04.018Z,17.63
2018-09-20T02:50:04.049Z,17.68
2018-09-20T02:51:04.078Z,17.57
2018-09-20T02:52:04.107Z,17.67
2018-09-20T02:53:04.135Z,17.70
2018-09-20T02:54:04.167Z,17.68
2018-09-20T02:55:04.201Z,17.59
2018-09-20T02:56:04.221Z,17.65
2018-09-20T02:57:04.268Z,17.68
2018-09-20T02:58:04.293Z,17.57
2018-09-20T02:59:04.397Z,17.63
2018-09-20T03:00:04.349Z,17.54
2018-09-20T03:01:04.374Z,17.56
2018-09-20T03:02:04.410Z,17.49
2018-09-20T03:03:04.438Z,17.59
2018-09-20T03:04:04.469Z,17.54
2018-09-20T03:05:04.499Z,17.56
2018-09-20T03:06:04.528Z,17.45
2018-09-20T03:07:04.559Z,17.54
2018-09-20T03:08:04.588Z,17.57
2018-09-20T03:09:04.620Z,17.45
2018-09-20T03:10:04.652Z,17.57
2018-09-20T03:11:04.668Z,17.54
2018-09-20T03:12:04.703Z,17.54
2018-09-20T03:13:04.738Z,17.54
2018-09-20T03:14:04.770Z,17.56
2018-09-20T03:15:04.802Z,17.57
2018-09-20T03:16:04.830Z,17.59
2018-09-20T03:17:04.856Z,17.68
2018-09-20T03:18:04.888Z,17.65
2018-09-20T03:19:04.923Z,17.75
2018-09-20T03:20:04.949Z,17.70
2018-09-20T03:21:04.979Z,17.68
2018-09-20T03:22:05.011Z,17.67
2018-09-20T03:23:05.036Z,17.56
2018-09-20T03:24:05.069Z,17.65
2018-09-20T03:25:05.103Z,17.65
2018-09-20T03:26:05.126Z,17.65
2018-09-20T03:27:05.158Z,17.57
2018-09-20T03:28:05.194Z,17.63
2018-09-20T03:29:05.223Z,17.57
2018-09-20T03:30:05.248Z,17.60
2018-09-20T03:31:05.290Z,17.67
2018-09-20T03:32:05.308Z,17.56
2018-09-20T03:33:05.332Z,17.54
2018-09-20T03:34:05.368Z,17.57
2018-09-20T03:35:05.403Z,17.60
2018-09-20T03:36:05.428Z,17.54
2018-09-20T03:37:05.459Z,17.54
2018-09-20T03:38:05.490Z,17.51
2018-09-20T03:39:05.524Z,17.56
2018-09-20T03:40:05.540Z,17.57
2018-09-20T03:41:05.572Z,17.59
2018-09-20T03:42:05.604Z,17.64
2018-09-20T03:43:05.636Z,17.65
2018-09-20T03:44:05.672Z,17.63
2018-09-20T03:45:05.697Z,17.57
2018-09-20T03:46:05.727Z,17.60
2018-09-20T03:47:05.758Z,17.68
2018-09-20T03:48:05.794Z,17.59
2018-09-20T03:49:05.817Z,17.73
2018-09-20T03:50:05.845Z,17.57
2018-09-20T03:51:05.880Z,17.60
2018-09-20T03:52:05.907Z,17.64
2018-09-20T03:53:05.935Z,17.64
2018-09-20T03:54:05.963Z,17.63
2018-09-20T03:55:05.995Z,17.67
2018-09-20T03:56:06.026Z,17.71
2018-09-20T03:57:06.058Z,17.73
2018-09-20T03:58:06.087Z,17.63
2018-09-20T03:59:06.116Z,17.64
2018-09-20T04:00:06.144Z,17.68
2018-09-20T04:01:06.180Z,17.68
2018-09-20T04:02:06.209Z,17.60
2018-09-20T04:03:06.232Z,17.63
2018-09-20T04:04:06.264Z,17.59
2018-09-20T04:05:06.302Z,17.54
2018-09-20T04:06:06.327Z,17.56
2018-09-20T04:07:06.353Z,17.59
2018-09-20T04:08:06.388Z,17.57
2018-09-20T04:09:06.414Z,17.56
2018-09-20T04:10:06.449Z,17.51
2018-09-20T04:11:06.475Z,17.42
2018-09-20T04:12:06.501Z,17.59
2018-09-20T04:13:06.529Z,17.63
2018-09-20T04:14:06.572Z,17.57
2018-09-20T04:15:06.600Z,17.51
2018-09-20T04:16:06.627Z,17.53
2018-09-20T04:17:06.656Z,17.57
2018-09-20T04:18:06.688Z,17.54
2018-09-20T04:19:06.716Z,17.57
2018-09-20T04:20:06.746Z,17.57
2018-09-20T04:21:06.771Z,17.54
2018-09-20T04:22:06.793Z,17.57
2018-09-20T04:23:06.834Z,17.64
2018-09-20T04:24:06.864Z,17.49
2018-09-20T04:25:06.889Z,17.57
2018-09-20T04:26:06.921Z,17.51
2018-09-20T04:27:06.953Z,17.53
2018-09-20T04:28:06.982Z,17.54
2018-09-20T04:29:07.007Z,17.57
2018-09-20T04:30:07.042Z,17.57
2018-09-20T04:31:07.081Z,17.63
2018-09-20T04:32:07.094Z,17.64
2018-09-20T04:33:07.132Z,17.64
2018-09-20T04:34:07.158Z,17.63
2018-09-20T04:35:07.189Z,17.60
2018-09-20T04:36:07.224Z,17.63
2018-09-20T04:37:07.250Z,17.65
2018-09-20T04:38:07.278Z,17.67
2018-09-20T04:39:07.310Z,17.59
2018-09-20T04:40:07.342Z,17.63
2018-09-20T04:41:07.371Z,17.57
2018-09-20T04:42:07.404Z,17.64
2018-09-20T04:43:07.435Z,17.63
2018-09-20T04:44:07.466Z,17.67
2018-09-20T04:45:07.489Z,17.59
2018-09-20T04:46:07.524Z,17.59
2018-09-20T04:47:07.549Z,17.65
2018-09-20T04:48:07.593Z,17.64
2018-09-20T04:49:07.611Z,17.63
2018-09-20T04:50:07.633Z,17.60
2018-09-20T04:51:07.672Z,17.63
2018-09-20T04:52:07.697Z,17.59
2018-09-20T04:53:07.752Z,17.64
2018-09-20T04:54:07.758Z,17.60
2018-09-20T04:55:07.796Z,17.57
2018-09-20T04:56:07.822Z,17.70
2018-09-20T04:57:07.845Z,17.65
2018-09-20T04:58:07.880Z,17.70
2018-09-20T04:59:07.908Z,17.71
2018-09-20T05:00:08.020Z,17.60
2018-09-20T05:01:07.966Z,17.56
2018-09-20T05:02:07.996Z,17.67
2018-09-20T05:03:08.025Z,17.65
2018-09-20T05:04:08.060Z,17.64
2018-09-20T05:05:08.089Z,17.63
2018-09-20T05:06:08.120Z,17.60
2018-09-20T05:07:08.149Z,17.68
2018-09-20T05:08:08.178Z,17.65
2018-09-20T05:09:08.208Z,17.70
2018-09-20T05:10:08.237Z,17.76
2018-09-20T05:11:08.278Z,17.73
2018-09-20T05:12:08.297Z,17.70
2018-09-20T05:13:08.326Z,17.71
2018-09-20T05:14:08.352Z,17.63
2018-09-20T05:15:08.392Z,17.71
2018-09-20T05:16:08.411Z,17.71
2018-09-20T05:17:08.443Z,17.71
2018-09-20T05:18:08.472Z,17.75
2018-09-20T05:19:08.507Z,17.85
2018-09-20T05:20:08.577Z,17.85
2018-09-20T05:21:08.562Z,17.91
2018-09-20T05:22:08.591Z,17.95
2018-09-20T05:23:08.636Z,17.93
2018-09-20T05:24:08.655Z,18.04
2018-09-20T05:25:08.688Z,18.01
2018-09-20T05:26:08.726Z,18.12
2018-09-20T05:27:08.745Z,18.09
2018-09-20T05:28:08.779Z,18.03
2018-09-20T05:29:08.805Z,18.07
2018-09-20T05:30:08.828Z,18.03
2018-09-20T05:31:08.873Z,18.13
2018-09-20T05:32:08.901Z,18.18
2018-09-20T05:33:08.959Z,18.13
2018-09-20T05:34:08.964Z,18.18
2018-09-20T05:35:08.983Z,18.19
2018-09-20T05:36:09.011Z,18.22
2018-09-20T05:37:09.043Z,18.16
2018-09-20T05:38:09.085Z,18.13
2018-09-20T05:39:09.101Z,18.22
2018-09-20T05:40:09.133Z,18.31
2018-09-20T05:41:09.165Z,18.31
2018-09-20T05:42:09.193Z,18.31
2018-09-20T05:43:09.222Z,18.33
2018-09-20T05:44:09.270Z,18.33
2018-09-20T05:45:09.287Z,18.31
2018-09-20T05:46:09.315Z,18.23
2018-09-20T05:47:09.354Z,18.33
2018-09-20T05:48:09.376Z,18.30
2018-09-20T05:49:09.407Z,18.26
2018-09-20T05:50:09.455Z,18.25
2018-09-20T05:51:09.470Z,18.31
2018-09-20T05:52:09.498Z,18.34
2018-09-20T05:53:09.525Z,18.33
2018-09-20T05:54:09.555Z,18.31
2018-09-20T05:55:09.586Z,18.30
2018-09-20T05:56:09.621Z,18.33
2018-09-20T05:57:09.644Z,18.41
2018-09-20T05:58:09.679Z,18.35
2018-09-20T05:59:09.756Z,18.38
2018-09-20T06:00:09.744Z,18.31
2018-09-20T06:01:09.762Z,18.34
2018-09-20T06:02:09.806Z,18.38
2018-09-20T06:03:09.831Z,18.37
2018-09-20T06:04:09.860Z,18.38
2018-09-20T06:05:09.898Z,18.43
2018-09-20T06:06:09.925Z,18.43
2018-09-20T06:07:09.959Z,18.40
2018-09-20T06:08:09.980Z,18.40
2018-09-20T06:09:10.017Z,18.49
2018-09-20T06:10:10.042Z,18.46
2018-09-20T06:11:10.068Z,18.44
2018-09-20T06:12:10.105Z,18.46
2018-09-20T06:13:10.149Z,18.53
2018-09-20T06:14:10.164Z,18.55
2018-09-20T06:15:10.197Z,18.48
2018-09-20T06:16:10.226Z,18.62
2018-09-20T06:17:10.257Z,18.63
2018-09-20T06:18:10.290Z,18.68
2018-09-20T06:19:10.318Z,18.60
2018-09-20T06:20:10.350Z,18.66
2018-09-20T06:21:10.366Z,18.66
2018-09-20T06:22:10.405Z,18.67
2018-09-20T06:23:10.434Z,18.70
2018-09-20T06:24:10.457Z,18.68
2018-09-20T06:25:10.498Z,18.77
2018-09-20T06:26:10.530Z,18.70
2018-09-20T06:27:10.555Z,18.75
2018-09-20T06:28:10.597Z,18.74
2018-09-20T06:29:10.620Z,18.78
2018-09-20T06:30:10.659Z,18.75
2018-09-20T06:31:10.681Z,18.80
2018-09-20T06:32:10.720Z,18.80
2018-09-20T06:33:10.755Z,18.86
2018-09-20T06:34:10.769Z,18.89
2018-09-20T06:35:10.813Z,18.95
2018-09-20T06:36:10.824Z,18.96
2018-09-20T06:37:10.870Z,18.92
2018-09-20T06:38:10.895Z,19.00
2018-09-20T06:39:10.923Z,19.05
2018-09-20T06:40:10.955Z,19.07
2018-09-20T06:41:11.046Z,19.04
2018-09-20T06:42:11.014Z,19.18
2018-09-20T06:43:11.056Z,19.14
2018-09-20T06:44:11.088Z,19.15
2018-09-20T06:45:11.113Z,19.18
2018-09-20T06:46:11.135Z,19.22
2018-09-20T06:47:11.177Z,19.29
2018-09-20T06:48:11.202Z,19.30
2018-09-20T06:49:11.221Z,19.36
2018-09-20T06:50:11.276Z,19.41
2018-09-20T06:51:11.295Z,19.41
2018-09-20T06:52:11.324Z,19.51
2018-09-20T06:53:11.361Z,19.70
2018-09-20T06:54:11.383Z,19.84
2018-09-20T06:55:11.412Z,20.04
2018-09-20T06:56:11.447Z,20.11
2018-09-20T06:57:11.479Z,20.29
2018-09-20T06:58:11.511Z,20.43
2018-09-20T06:59:11.537Z,20.57
2018-09-20T07:00:11.572Z,20.65
2018-09-20T07:01:11.629Z,20.65
2018-09-20T07:02:11.636Z,20.78
2018-09-20T07:03:11.687Z,20.87
2018-09-20T07:04:11.697Z,20.84
2018-09-20T07:05:11.729Z,21.00
2018-09-20T07:06:11.761Z,21.00
2018-09-20T07:07:11.792Z,21.02
2018-09-20T07:08:11.828Z,20.95
2018-09-20T07:09:11.853Z,21.05
2018-09-20T07:10:11.889Z,21.05
2018-09-20T07:11:11.921Z,20.99
2018-09-20T07:12:11.975Z,21.05
2018-09-20T07:13:11.981Z,21.03
2018-09-20T07:14:12.022Z,21.03
2018-09-20T07:15:12.048Z,21.00
2018-09-20T07:16:12.081Z,21.08
2018-09-20T07:17:12.112Z,21.15
2018-09-20T07:18:12.140Z,21.12
2018-09-20T07:19:12.245Z,21.14
2018-09-20T07:20:12.203Z,21.10
2018-09-20T07:21:12.235Z,21.18
2018-09-20T07:22:12.270Z,21.18
2018-09-20T07:23:12.299Z,21.20
2018-09-20T07:24:12.334Z,21.18
2018-09-20T07:25:12.385Z,21.26
2018-09-20T07:26:12.400Z,21.30
2018-09-20T07:27:12.431Z,21.40
2018-09-20T07:28:12.462Z,21.37
2018-09-20T07:29:12.498Z,21.40
2018-09-20T07:30:12.527Z,21.43
2018-09-20T07:31:12.558Z,21.48
2018-09-20T07:32:12.584Z,21.58
2018-09-20T07:33:12.626Z,21.63
2018-09-20T07:34:12.658Z,21.76
2018-09-20T07:35:12.688Z,21.89
2018-09-20T07:36:12.722Z,21.90
2018-09-20T07:37:12.760Z,22.04
2018-09-20T07:38:12.787Z,22.17
2018-09-20T07:39:12.822Z,22.40
2018-09-20T07:40:12.854Z,22.58
2018-09-20T07:41:12.886Z,22.77
2018-09-20T07:42:12.914Z,23.02
2018-09-20T07:43:12.950Z,23.37
2018-09-20T07:44:12.979Z,23.62
2018-09-20T07:45:13.012Z,23.88
2018-09-20T07:46:13.054Z,24.11
2018-09-20T07:47:13.089Z,24.20
2018-09-20T07:48:13.110Z,24.05
2018-09-20T07:49:13.145Z,24.17
2018-09-20T07:50:13.178Z,24.32
2018-09-20T07:51:13.212Z,24.77
2018-09-20T07:52:13.241Z,26.49
2018-09-20T07:53:13.276Z,27.80
2018-09-20T07:54:13.311Z,28.61
2018-09-20T07:55:13.350Z,27.83
2018-09-20T07:56:13.389Z,28.22
2018-09-20T07:57:13.414Z,28.20
2018-09-20T07:58:13.459Z,28.05
2018-09-20T07:59:13.491Z,28.60
2018-09-20T08:00:13.526Z,29.99
2018-09-20T08:01:13.559Z,31.18
2018-09-20T08:02:13.593Z,32.03
2018-09-20T08:03:13.627Z,32.64
2018-09-20T08:04:13.666Z,33.16
2018-09-20T08:05:13.705Z,33.85
2018-09-20T08:06:13.736Z,34.47
2018-09-20T08:07:13.923Z,35.12
2018-09-20T08:08:13.812Z,35.45
2018-09-20T08:09:13.851Z,35.01
2018-09-20T08:10:13.889Z,33.90
2018-09-20T08:11:13.927Z,33.44
2018-09-20T08:12:13.966Z,32.72
2018-09-20T08:13:14.004Z,32.16
2018-09-20T08:14:14.042Z,33.74
2018-09-20T08:15:14.084Z,33.54
2018-09-20T08:16:14.129Z,32.67
2018-09-20T08:17:14.160Z,32.74
2018-09-20T08:18:14.199Z,33.46
2018-09-20T08:19:14.240Z,33.46
2018-09-20T08:20:14.298Z,33.62
2018-09-20T08:21:14.314Z,33.85
2018-09-20T08:22:14.359Z,33.65
2018-09-20T08:23:14.401Z,34.79
2018-09-20T08:24:14.432Z,35.40
2018-09-20T08:25:14.476Z,36.01
2018-09-20T08:26:14.518Z,36.52
2018-09-20T08:27:14.560Z,37.04
2018-09-20T08:28:14.590Z,37.75
2018-09-20T08:29:14.632Z,38.34
2018-09-20T08:30:14.680Z,38.88
2018-09-20T08:31:14.721Z,39.34
2018-09-20T08:32:14.766Z,39.68
2018-09-20T08:33:14.801Z,40.15
2018-09-20T08:34:14.843Z,40.51
2018-09-20T08:35:14.888Z,40.55
2018-09-20T08:36:14.936Z,40.78
2018-09-20T08:37:15.040Z,41.03
2018-09-20T08:38:15.016Z,41.26
2018-09-20T08:39:15.058Z,41.54
2018-09-20T08:40:15.103Z,41.81
2018-09-20T08:41:15.157Z,41.99
2018-09-20T08:42:15.256Z,42.13
2018-09-20T08:43:15.235Z,42.20
2018-09-20T08:44:15.276Z,42.29
2018-09-20T08:45:15.320Z,42.59
2018-09-20T08:46:15.376Z,42.64
2018-09-20T08:47:15.411Z,42.92
2018-09-20T08:48:15.456Z,42.95
2018-09-20T08:49:15.510Z,43.22
2018-09-20T08:50:15.540Z,43.51
2018-09-20T08:51:15.592Z,43.65
2018-09-20T08:52:15.634Z,43.94
2018-09-20T08:53:15.679Z,44.24
2018-09-20T08:54:15.724Z,44.35
2018-09-20T08:55:15.769Z,44.62
2018-09-20T08:56:15.820Z,44.91
2018-09-20T08:57:15.918Z,45.13
2018-09-20T08:58:15.904Z,45.26
2018-09-20T08:59:15.954Z,45.29
2018-09-20T09:00:15.999Z,45.37
2018-09-20T09:01:16.048Z,45.44
2018-09-20T09:02:16.080Z,45.40
2018-09-20T09:03:16.152Z,45.57
2018-09-20T09:04:16.179Z,45.56
2018-09-20T09:05:16.239Z,45.56
2018-09-20T09:06:16.279Z,45.49
2018-09-20T09:07:16.325Z,45.40
2018-09-20T09:08:16.360Z,45.41
2018-09-20T09:09:16.413Z,45.72
2018-09-20T09:10:16.474Z,45.91
2018-09-20T09:11:16.510Z,46.17
2018-09-20T09:12:16.560Z,46.22
2018-09-20T09:13:16.606Z,46.46
2018-09-20T09:14:16.662Z,46.61
2018-09-20T09:15:16.698Z,46.68
2018-09-20T09:16:16.743Z,46.90
2018-09-20T09:17:16.790Z,47.09
2018-09-20T09:18:16.851Z,47.25
2018-09-20T09:19:16.877Z,47.51
2018-09-20T09:20:16.928Z,46.68
2018-09-20T09:21:16.979Z,47.06
2018-09-20T09:22:17.031Z,45.40
2018-09-20T09:23:17.089Z,45.47
2018-09-20T09:24:17.115Z,45.98
2018-09-20T09:25:17.175Z,46.55
2018-09-20T09:26:17.221Z,46.77
2018-09-20T09:27:17.268Z,45.28
2018-09-20T09:28:17.313Z,45.35
2018-09-20T09:29:17.362Z,46.17
2018-09-20T09:30:17.409Z,46.86
2018-09-20T09:31:17.465Z,47.36
2018-09-20T09:32:17.506Z,47.84
2018-09-20T09:33:17.551Z,47.88
2018-09-20T09:34:17.632Z,47.86
2018-09-20T09:35:17.651Z,46.58
2018-09-20T09:36:17.695Z,45.52
2018-09-20T09:37:17.740Z,44.40
2018-09-20T09:38:17.792Z,44.87
2018-09-20T09:39:17.843Z,43.46
2018-09-20T09:40:17.895Z,43.71
2018-09-20T09:41:17.937Z,42.60
2018-09-20T09:42:18.092Z,42.42
2018-09-20T09:43:18.044Z,41.22
2018-09-20T09:44:18.094Z,42.70
2018-09-20T09:45:18.124Z,43.08
2018-09-20T09:46:18.179Z,43.84
2018-09-20T09:47:18.220Z,43.14
2018-09-20T09:48:18.266Z,42.41
2018-09-20T09:49:18.304Z,42.80
2018-09-20T09:50:18.359Z,44.11
2018-09-20T09:51:18.396Z,44.99
2018-09-20T09:52:18.444Z,44.50
2018-09-20T09:53:18.524Z,43.01
2018-09-20T09:54:18.546Z,41.98
2018-09-20T09:55:18.600Z,41.05
2018-09-20T09:56:18.638Z,41.96
2018-09-20T09:57:18.695Z,40.64
2018-09-20T09:58:18.730Z,39.69
2018-09-20T09:59:18.785Z,40.82
2018-09-20T10:00:18.827Z,40.64
2018-09-20T10:01:18.871Z,40.48
2018-09-20T10:02:18.916Z,41.71
2018-09-20T10:03:18.961Z,40.25
2018-09-20T10:04:18.999Z,39.47
2018-09-20T10:05:19.057Z,38.74
2018-09-20T10:06:19.104Z,39.57
2018-09-20T10:07:19.231Z,40.44
2018-09-20T10:08:19.193Z,41.81
2018-09-20T10:09:19.235Z,41.99
2018-09-20T10:10:19.280Z,42.32
2018-09-20T10:11:19.331Z,42.86
2018-09-20T10:12:19.377Z,43.22
2018-09-20T10:13:19.428Z,43.65
2018-09-20T10:14:19.464Z,44.08
2018-09-20T10:15:19.516Z,44.53
2018-09-20T10:16:19.548Z,44.88
2018-09-20T10:17:19.602Z,44.92
2018-09-20T10:18:19.650Z,45.07
2018-09-20T10:19:19.694Z,44.70
2018-09-20T10:20:19.750Z,44.31
2018-09-20T10:21:19.791Z,43.74
2018-09-20T10:22:19.839Z,43.37
2018-09-20T10:23:19.884Z,43.44
2018-09-20T10:24:19.936Z,43.81
2018-09-20T10:25:19.977Z,44.43
2018-09-20T10:26:20.025Z,44.95
2018-09-20T10:27:20.067Z,45.35
2018-09-20T10:28:20.113Z,45.73
2018-09-20T10:29:20.157Z,46.33
2018-09-20T10:30:20.215Z,46.78
2018-09-20T10:31:20.278Z,47.25
2018-09-20T10:32:20.299Z,47.45
2018-09-20T10:33:20.344Z,48.12
2018-09-20T10:34:20.390Z,48.60
2018-09-20T10:35:20.438Z,49.05
2018-09-20T10:36:20.490Z,48.73
2018-09-20T10:37:20.534Z,47.58
2018-09-20T10:38:20.575Z,46.04
2018-09-20T10:39:20.643Z,45.37
2018-09-20T10:40:20.676Z,45.57
2018-09-20T10:41:20.721Z,45.25
2018-09-20T10:42:20.797Z,44.89
2018-09-20T10:43:20.823Z,45.22
2018-09-20T10:44:20.861Z,44.00
2018-09-20T10:45:20.912Z,43.04
2018-09-20T10:46:20.959Z,43.86
2018-09-20T10:47:21.082Z,44.50
2018-09-20T10:48:21.059Z,45.06
2018-09-20T10:49:21.103Z,45.49
2018-09-20T10:50:21.148Z,46.29
2018-09-20T10:51:21.192Z,47.06
2018-09-20T10:52:21.241Z,47.70
2018-09-20T10:53:21.288Z,47.94
2018-09-20T10:54:21.330Z,48.31
2018-09-20T10:55:21.385Z,48.46
2018-09-20T10:56:21.429Z,48.70
2018-09-20T10:57:21.484Z,48.89
2018-09-20T10:58:21.528Z,48.69
2018-09-20T10:59:21.573Z,48.47
2018-09-20T11:00:21.627Z,48.20
2018-09-20T11:01:21.662Z,47.97
2018-09-20T11:02:21.716Z,47.20
2018-09-20T11:03:21.777Z,46.32
2018-09-20T11:04:21.814Z,45.37
2018-09-20T11:05:21.865Z,45.22
2018-09-20T11:06:21.907Z,45.48
2018-09-20T11:07:21.958Z,45.42
2018-09-20T11:08:22.006Z,46.13
2018-09-20T11:09:22.050Z,46.80
2018-09-20T11:10:22.124Z,47.45
2018-09-20T11:11:22.191Z,48.26
2018-09-20T11:12:22.199Z,48.47
2018-09-20T11:13:22.240Z,48.84
2018-09-20T11:14:22.282Z,48.80
2018-09-20T11:15:22.336Z,49.09
2018-09-20T11:16:22.388Z,49.05
2018-09-20T11:17:22.433Z,49.81
2018-09-20T11:18:22.487Z,50.42
2018-09-20T11:19:22.519Z,50.85
2018-09-20T11:20:22.591Z,51.23
2018-09-20T11:21:22.623Z,51.46
2018-09-20T11:22:22.673Z,51.63
2018-09-20T11:23:22.722Z,51.84
2018-09-20T11:24:22.775Z,52.37
2018-09-20T11:25:22.820Z,52.60
2018-09-20T11:26:22.871Z,52.95
2018-09-20T11:27:22.919Z,53.13
2018-09-20T11:28:22.967Z,52.88
2018-09-20T11:29:23.022Z,51.91
2018-09-20T11:30:23.067Z,50.42
2018-09-20T11:31:23.112Z,49.67
2018-09-20T11:32:23.167Z,48.44
2018-09-20T11:33:23.213Z,47.30
2018-09-20T11:34:23.261Z,46.37
2018-09-20T11:35:23.313Z,46.15
2018-09-20T11:36:23.388Z,46.61
2018-09-20T11:37:23.414Z,47.09
2018-09-20T11:38:23.459Z,47.31
2018-09-20T11:39:23.510Z,48.32
2018-09-20T11:40:23.558Z,49.30
2018-09-20T11:41:23.605Z,50.00
2018-09-20T11:42:23.666Z,50.61
2018-09-20T11:43:23.705Z,50.99
2018-09-20T11:44:23.752Z,51.41
2018-09-20T11:45:23.797Z,51.80
2018-09-20T11:46:23.845Z,51.99
2018-09-20T11:47:23.901Z,52.28
2018-09-20T11:48:23.948Z,52.38
2018-09-20T11:49:23.995Z,52.63
2018-09-20T11:50:24.049Z,52.85
2018-09-20T11:51:24.091Z,52.99
2018-09-20T11:52:24.147Z,53.18
2018-09-20T11:53:24.192Z,53.31
2018-09-20T11:54:24.243Z,53.34
2018-09-20T11:55:24.292Z,53.55
2018-09-20T11:56:24.345Z,53.67
2018-09-20T11:57:24.398Z,53.86
2018-09-20T11:58:24.455Z,53.88
2018-09-20T11:59:24.508Z,54.07
2018-09-20T12:00:24.551Z,54.22
2018-09-20T12:01:24.681Z,54.26
2018-09-20T12:02:24.647Z,54.32
2018-09-20T12:03:24.698Z,54.43
2018-09-20T12:04:24.746Z,54.55
2018-09-20T12:05:24.790Z,54.32
2018-09-20T12:06:24.852Z,54.18
2018-09-20T12:07:24.900Z,54.41
2018-09-20T12:08:24.955Z,54.56
2018-09-20T12:09:25.000Z,54.70
2018-09-20T12:10:25.045Z,54.72
2018-09-20T12:11:25.112Z,54.22
2018-09-20T12:12:25.154Z,51.91
2018-09-20T12:13:25.204Z,51.20
2018-09-20T12:14:25.259Z,52.25
2018-09-20T12:15:25.307Z,52.91
2018-09-20T12:16:25.354Z,53.42
2018-09-20T12:17:25.407Z,53.55
2018-09-20T12:18:25.466Z,53.52
2018-09-20T12:19:25.512Z,53.74
2018-09-20T12:20:25.561Z,53.99
2018-09-20T12:21:25.607Z,54.15
2018-09-20T12:22:25.662Z,54.34
2018-09-20T12:23:25.712Z,54.43
2018-09-20T12:24:25.764Z,54.56
2018-09-20T12:25:25.824Z,54.70
2018-09-20T12:26:25.868Z,55.05
2018-09-20T12:28:25.974Z,55.34
2018-09-20T12:29:26.021Z,55.31
2018-09-20T12:30:26.079Z,55.24
2018-09-20T12:31:26.143Z,55.24
2018-09-20T12:32:26.175Z,55.19
2018-09-20T12:33:26.226Z,55.24
2018-09-20T12:34:26.280Z,55.34
2018-09-20T12:35:26.344Z,55.41
2018-09-20T12:36:26.383Z,55.50
2018-09-20T12:37:26.449Z,55.67
2018-09-20T12:38:26.482Z,55.60
2018-09-20T12:39:26.542Z,55.68
2018-09-20T12:40:26.585Z,55.71
2018-09-20T12:41:26.639Z,55.78
2018-09-20T12:42:26.692Z,55.81
2018-09-20T12:43:26.749Z,55.93
2018-09-20T12:44:26.797Z,55.95
2018-09-20T12:45:26.854Z,56.04
2018-09-20T12:46:26.898Z,55.75
2018-09-20T12:47:26.940Z,55.72
2018-09-20T12:48:27.005Z,55.29
2018-09-20T12:49:27.055Z,55.50
2018-09-20T12:50:27.108Z,55.71
2018-09-20T12:51:27.152Z,55.88
2018-09-20T12:52:27.213Z,56.00
2018-09-20T12:53:27.261Z,55.97
2018-09-20T12:54:27.318Z,56.08